createdAt,value
2023-02-27T00:03:02.203Z,61.68
2023-02-27T00:08:05.146Z,61.61
2023-02-27T00:13:08.218Z,61.20
2023-02-27T00:18:11.139Z,60.79
2023-02-27T00:23:15.960Z,60.48
2023-02-27T00:28:18.828Z,60.43
2023-02-27T00:33:22.367Z,60.37
2023-02-27T00:38:25.443Z,60.31
2023-02-27T00:43:28.359Z,60.38
2023-02-27T00:48:31.701Z,60.35
2023-02-27T00:53:34.566Z,60.45
2023-02-27T00:58:37.407Z,60.01
2023-02-27T01:03:40.252Z,59.96
2023-02-27T01:08:43.191Z,59.98
2023-02-27T01:13:46.502Z,60.32
2023-02-27T01:18:49.788Z,60.32
2023-02-27T01:23:52.656Z,60.41
2023-02-27T01:28:55.575Z,60.39
2023-02-27T01:33:58.483Z,60.90
2023-02-27T01:39:01.378Z,61.40
2023-02-27T01:44:08.509Z,61.62
2023-02-27T01:49:27.472Z,61.76
2023-02-27T01:54:34.268Z,62.17
2023-02-27T01:59:42.041Z,62.43
2023-02-27T02:04:46.396Z,62.74
2023-02-27T02:09:53.033Z,62.92
2023-02-27T02:14:55.896Z,62.78
2023-02-27T02:20:36.652Z,62.91
2023-02-27T02:26:09.971Z,63.08
2023-02-27T02:31:56.996Z,63.16
2023-02-27T02:37:40.195Z,63.40
2023-02-27T02:42:54.652Z,63.80
2023-02-27T02:48:16.929Z,64.29
2023-02-27T02:53:42.223Z,64.64
2023-02-27T02:58:59.853Z,64.35
2023-02-27T03:04:19.418Z,63.98
2023-02-27T03:09:37.813Z,63.95
2023-02-27T03:14:50.289Z,64.39
2023-02-27T03:19:59.274Z,64.60
2023-02-27T03:25:06.911Z,64.57
2023-02-27T03:30:23.587Z,64.61
2023-02-27T03:35:42.735Z,64.42
2023-02-27T03:40:56.470Z,64.54
2023-02-27T03:46:21.749Z,64.48
2023-02-27T03:51:28.101Z,64.48
2023-02-27T03:56:49.076Z,64.87
2023-02-27T04:01:53.833Z,65.01
2023-02-27T04:07:22.382Z,64.93
2023-02-27T04:12:58.712Z,64.99
2023-02-27T04:18:29.237Z,65.00
2023-02-27T04:24:02.264Z,65.15
2023-02-27T04:29:18.022Z,65.06
2023-02-27T04:34:34.461Z,64.89
2023-02-27T04:39:51.988Z,65.02
2023-02-27T04:45:02.716Z,65.56
2023-02-27T04:50:15.014Z,65.82
2023-02-27T04:55:27.169Z,66.54
2023-02-27T05:00:33.359Z,66.57
2023-02-27T05:05:38.597Z,66.87
2023-02-27T05:11:11.242Z,66.75
2023-02-27T05:17:02.793Z,66.60
2023-02-27T05:22:26.677Z,66.93
2023-02-27T05:27:47.461Z,66.76
2023-02-27T05:33:07.109Z,66.73
2023-02-27T05:38:29.423Z,67.11
2023-02-27T05:43:42.477Z,66.95
2023-02-27T05:48:55.067Z,66.77
2023-02-27T05:54:04.848Z,66.64
2023-02-27T05:59:29.540Z,66.37
2023-02-27T06:04:32.439Z,66.20
2023-02-27T06:09:35.941Z,66.31
2023-02-27T06:14:38.856Z,66.46
2023-02-27T06:19:41.846Z,66.70
2023-02-27T06:24:44.825Z,66.81
2023-02-27T06:29:47.692Z,66.88
2023-02-27T06:34:50.563Z,66.97
2023-02-27T06:39:53.434Z,66.79
2023-02-27T06:44:56.335Z,64.51
2023-02-27T06:49:59.290Z,64.08
2023-02-27T06:55:02.451Z,64.21
2023-02-27T07:00:07.192Z,64.79
2023-02-27T07:05:12.088Z,64.67
2023-02-27T07:10:15.202Z,64.81
2023-02-27T07:15:18.195Z,64.72
2023-02-27T07:20:21.148Z,65.00
2023-02-27T07:25:24.116Z,65.60
2023-02-27T07:30:27.111Z,66.43
2023-02-27T07:35:30.035Z,66.75
2023-02-27T07:40:32.907Z,66.72
2023-02-27T07:45:35.791Z,66.78
2023-02-27T07:50:38.725Z,66.74
2023-02-27T07:55:41.901Z,66.51
2023-02-27T08:00:45.109Z,66.78
2023-02-27T08:05:48.393Z,66.13
2023-02-27T08:10:51.271Z,65.66
2023-02-27T08:15:54.395Z,64.67
2023-02-27T08:20:58.011Z,63.69
2023-02-27T08:26:02.610Z,63.47
2023-02-27T08:31:06.959Z,62.42
2023-02-27T08:36:10.274Z,61.61
2023-02-27T08:41:13.348Z,61.71
2023-02-27T08:46:16.343Z,60.81
2023-02-27T08:51:19.277Z,61.02
2023-02-27T08:56:22.279Z,60.04
2023-02-27T09:01:28.568Z,60.30
2023-02-27T09:06:33.196Z,60.13
2023-02-27T09:11:38.661Z,59.50
2023-02-27T09:16:42.174Z,59.88
2023-02-27T09:21:45.068Z,58.08
2023-02-27T09:26:48.902Z,57.98
2023-02-27T09:31:52.101Z,57.37
2023-02-27T09:36:55.039Z,54.96
2023-02-27T09:42:06.781Z,53.31
2023-02-27T09:47:17.331Z,51.60
2023-02-27T09:52:20.265Z,50.56
2023-02-27T09:58:06.813Z,50.48
2023-02-27T10:03:34.031Z,49.69
2023-02-27T10:08:55.442Z,48.79
2023-02-27T10:14:47.555Z,49.09
2023-02-27T10:19:52.761Z,48.82
2023-02-27T10:25:15.050Z,48.36
2023-02-27T10:30:32.868Z,48.61
2023-02-27T10:35:43.966Z,49.75
2023-02-27T10:40:48.422Z,49.59
2023-02-27T10:45:51.537Z,50.43
2023-02-27T10:51:28.791Z,50.36
2023-02-27T10:56:31.878Z,51.75
2023-02-27T11:01:47.961Z,51.63
2023-02-27T11:06:54.041Z,51.80
2023-02-27T11:12:30.642Z,51.62
2023-02-27T11:17:36.833Z,51.93
2023-02-27T11:22:41.750Z,52.13
2023-02-27T11:27:46.437Z,52.21
2023-02-27T11:32:51.458Z,52.28
2023-02-27T11:37:57.517Z,52.46
2023-02-27T11:43:47.817Z,51.87
2023-02-27T11:49:24.285Z,52.08
2023-02-27T11:54:48.759Z,51.61
2023-02-27T12:00:31.630Z,50.36
2023-02-27T12:05:50.809Z,49.96
2023-02-27T12:11:13.856Z,50.01
2023-02-27T12:17:02.246Z,50.28
2023-02-27T12:22:20.652Z,50.81
2023-02-27T12:27:35.492Z,51.10
2023-02-27T12:32:43.641Z,51.32
2023-02-27T12:37:46.740Z,51.98
2023-02-27T12:43:27.092Z,52.58
2023-02-27T12:48:44.798Z,52.76
2023-02-27T12:53:57.405Z,53.81
2023-02-27T12:59:34.075Z,54.26
2023-02-27T13:04:48.513Z,55.28
2023-02-27T13:10:07.645Z,55.47
2023-02-27T13:15:25.489Z,54.53
2023-02-27T13:20:50.050Z,53.87
2023-02-27T13:25:56.822Z,54.20
2023-02-27T13:31:40.372Z,53.49
2023-02-27T13:36:59.450Z,53.87
2023-02-27T13:42:02.484Z,53.53
2023-02-27T13:47:30.052Z,52.39
2023-02-27T13:52:38.830Z,51.80
2023-02-27T13:57:41.778Z,52.23
2023-02-27T14:03:00.014Z,51.90
2023-02-27T14:08:21.414Z,51.57
2023-02-27T14:13:49.895Z,51.50
2023-02-27T14:18:59.749Z,50.51
2023-02-27T14:24:02.793Z,50.25
2023-02-27T14:29:06.821Z,49.72
2023-02-27T14:34:14.737Z,50.15
2023-02-27T14:39:37.361Z,50.40
2023-02-27T14:44:47.009Z,49.88
2023-02-27T14:49:50.288Z,49.87
2023-02-27T14:55:05.381Z,50.08
2023-02-27T15:00:30.042Z,50.24
2023-02-27T15:05:34.940Z,50.15
2023-02-27T15:10:42.842Z,49.84
2023-02-27T15:15:45.849Z,49.86
2023-02-27T15:20:58.839Z,50.21
2023-02-27T15:26:01.782Z,50.66
2023-02-27T15:31:06.604Z,50.21
2023-02-27T15:36:22.723Z,49.72
2023-02-27T15:41:26.015Z,50.20
2023-02-27T15:46:29.894Z,50.04
2023-02-27T15:51:34.076Z,50.57
2023-02-27T15:56:39.053Z,50.83
2023-02-27T16:01:42.375Z,50.72
2023-02-27T16:06:51.616Z,51.25
2023-02-27T16:12:16.065Z,51.58
2023-02-27T16:17:33.097Z,51.48
2023-02-27T16:22:36.378Z,52.14
2023-02-27T16:27:39.769Z,52.28
2023-02-27T16:32:46.674Z,52.40
2023-02-27T16:37:50.760Z,51.20
2023-02-27T16:42:53.842Z,51.47
2023-02-27T16:47:59.967Z,51.61
2023-02-27T16:53:02.882Z,51.63
2023-02-27T16:58:06.478Z,51.62
2023-02-27T17:03:09.489Z,51.72
2023-02-27T17:08:12.887Z,52.02
2023-02-27T17:13:17.359Z,52.53
2023-02-27T17:18:20.358Z,52.24
2023-02-27T17:23:23.625Z,52.24
2023-02-27T17:28:26.531Z,52.35
2023-02-27T17:33:31.893Z,52.62
2023-02-27T17:38:36.355Z,52.13
2023-02-27T17:43:41.694Z,52.40
2023-02-27T17:48:44.588Z,52.30
2023-02-27T17:53:47.481Z,52.47
2023-02-27T17:58:50.589Z,52.52
2023-02-27T18:03:54.924Z,52.94
2023-02-27T18:08:57.918Z,52.73
2023-02-27T18:14:00.839Z,52.70
2023-02-27T18:19:06.342Z,53.40
2023-02-27T18:24:09.628Z,53.18
2023-02-27T18:29:14.140Z,53.36
2023-02-27T18:34:17.072Z,53.40
2023-02-27T18:39:20.100Z,53.69
2023-02-27T18:44:22.997Z,53.88
2023-02-27T18:49:25.915Z,53.87
2023-02-27T18:54:28.773Z,54.11
2023-02-27T18:59:31.831Z,54.14
2023-02-27T19:04:34.759Z,54.75
2023-02-27T19:09:37.716Z,55.18
2023-02-27T19:14:40.955Z,55.14
2023-02-27T19:19:44.466Z,55.29
2023-02-27T19:24:47.907Z,55.45
2023-02-27T19:29:51.734Z,55.53
2023-02-27T19:34:54.629Z,55.28
2023-02-27T19:39:57.653Z,55.42
2023-02-27T19:45:00.563Z,55.28
2023-02-27T19:50:04.965Z,55.40
2023-02-27T19:55:08.903Z,55.90
2023-02-27T20:00:13.364Z,55.76
2023-02-27T20:05:16.472Z,55.83
2023-02-27T20:10:19.611Z,55.68
2023-02-27T20:15:22.470Z,54.35
2023-02-27T20:20:25.364Z,53.63
2023-02-27T20:25:29.902Z,54.30
2023-02-27T20:30:32.909Z,54.46
2023-02-27T20:35:40.276Z,54.43
2023-02-27T20:40:43.239Z,54.50
2023-02-27T20:45:46.535Z,54.56
2023-02-27T20:50:49.475Z,54.63
2023-02-27T20:55:52.397Z,55.14
2023-02-27T21:00:55.337Z,55.39
2023-02-27T21:06:00.101Z,55.65
2023-02-27T21:11:12.832Z,55.61
2023-02-27T21:16:18.409Z,56.10
2023-02-27T21:21:28.989Z,56.66
2023-02-27T21:26:38.012Z,57.71
2023-02-27T21:31:45.187Z,57.88
2023-02-27T21:36:50.669Z,57.62
2023-02-27T21:41:54.177Z,57.43
2023-02-27T21:46:57.169Z,57.27
2023-02-27T21:52:00.101Z,57.59
2023-02-27T21:57:03.376Z,58.29
2023-02-27T22:02:06.786Z,58.32
2023-02-27T22:07:11.439Z,58.03
2023-02-27T22:12:16.150Z,58.27
2023-02-27T22:17:19.172Z,58.76
2023-02-27T22:22:22.108Z,58.89
2023-02-27T22:27:25.073Z,59.38
2023-02-27T22:32:28.788Z,59.67
2023-02-27T22:37:31.730Z,59.99
2023-02-27T22:42:34.654Z,60.43
2023-02-27T22:47:37.768Z,60.64
2023-02-27T22:52:40.726Z,60.54
2023-02-27T22:57:43.653Z,61.13
2023-02-27T23:02:46.553Z,61.36
2023-02-27T23:07:49.544Z,61.16
2023-02-27T23:12:52.628Z,61.20
2023-02-27T23:17:58.545Z,61.76
2023-02-27T23:23:01.725Z,62.12
2023-02-27T23:28:06.598Z,62.35
2023-02-27T23:33:09.514Z,62.32
2023-02-27T23:38:12.420Z,62.66
2023-02-27T23:43:16.033Z,62.96
2023-02-27T23:48:21.927Z,62.94
2023-02-27T23:53:24.893Z,62.98
2023-02-27T23:58:27.785Z,63.18
